createdAt,value
2023-05-22T00:02:19.746Z,48.54
2023-05-22T00:04:47.000Z,48.33
2023-05-22T00:07:14.465Z,48.42
2023-05-22T00:09:41.904Z,48.21
2023-05-22T00:12:09.179Z,48.52
2023-05-22T00:14:36.361Z,48.13
2023-05-22T00:17:04.413Z,48.14
2023-05-22T00:19:33.143Z,48.44
2023-05-22T00:22:00.597Z,48.08
2023-05-22T00:24:27.805Z,48.18
2023-05-22T00:26:55.085Z,48.37
2023-05-22T00:29:22.339Z,48.28
2023-05-22T00:31:49.656Z,48.03
2023-05-22T00:34:16.996Z,48.01
2023-05-22T00:36:44.334Z,47.75
2023-05-22T00:39:11.537Z,48.03
2023-05-22T00:41:38.825Z,48.09
2023-05-22T00:44:06.095Z,47.67
2023-05-22T00:46:33.891Z,48.04
2023-05-22T00:49:01.198Z,47.64
2023-05-22T00:51:28.776Z,47.85
2023-05-22T00:53:56.142Z,47.90
2023-05-22T00:56:23.456Z,48.03
2023-05-22T00:58:51.273Z,47.66
2023-05-22T01:01:18.605Z,47.61
2023-05-22T01:03:46.859Z,47.56
2023-05-22T01:06:16.016Z,47.51
2023-05-22T01:08:43.206Z,47.53
2023-05-22T01:11:47.988Z,47.64
2023-05-22T01:14:53.458Z,47.70
2023-05-22T01:17:47.672Z,47.50
2023-05-22T01:20:38.557Z,47.56
2023-05-22T01:23:33.522Z,47.39
2023-05-22T01:26:22.710Z,47.80
2023-05-22T01:29:09.484Z,47.90
2023-05-22T01:31:39.948Z,47.80
2023-05-22T01:34:10.551Z,47.33
2023-05-22T01:36:38.429Z,47.56
2023-05-22T01:39:06.699Z,47.32
2023-05-22T01:41:35.078Z,47.78
2023-05-22T01:44:02.729Z,47.41
2023-05-22T01:46:30.885Z,47.64
2023-05-22T01:48:58.512Z,47.30
2023-05-22T01:51:43.546Z,47.77
2023-05-22T01:54:35.440Z,47.68
2023-05-22T01:57:11.462Z,47.87
2023-05-22T01:59:49.678Z,47.63
2023-05-22T02:02:19.504Z,47.61
2023-05-22T02:04:52.119Z,47.69
2023-05-22T02:07:21.433Z,47.30
2023-05-22T02:09:49.383Z,47.61
2023-05-22T02:12:16.757Z,47.58
2023-05-22T02:14:44.436Z,47.64
2023-05-22T02:17:12.374Z,47.34
2023-05-22T02:19:39.726Z,47.58
2023-05-22T02:22:09.839Z,47.63
2023-05-22T02:24:37.068Z,47.10
2023-05-22T02:27:04.328Z,47.47
2023-05-22T02:29:31.796Z,47.16
2023-05-22T02:31:59.037Z,47.34
2023-05-22T02:34:26.995Z,47.26
2023-05-22T02:36:54.201Z,47.18
2023-05-22T02:39:21.570Z,47.58
2023-05-22T02:41:48.809Z,47.40
2023-05-22T02:44:16.068Z,47.32
2023-05-22T02:46:43.361Z,47.51
2023-05-22T02:49:10.620Z,47.41
2023-05-22T02:51:37.882Z,47.33
2023-05-22T02:54:05.449Z,47.52
2023-05-22T02:56:32.705Z,47.20
2023-05-22T02:59:01.043Z,47.36
2023-05-22T03:01:30.454Z,47.43
2023-05-22T03:03:57.850Z,47.00
2023-05-22T03:06:25.541Z,47.48
2023-05-22T03:08:53.174Z,47.08
2023-05-22T03:11:21.495Z,47.02
2023-05-22T03:13:48.704Z,47.00
2023-05-22T03:16:16.015Z,47.20
2023-05-22T03:18:43.294Z,47.13
2023-05-22T03:21:10.968Z,47.12
2023-05-22T03:23:38.211Z,47.46
2023-05-22T03:26:05.696Z,47.12
2023-05-22T03:28:33.172Z,47.36
2023-05-22T03:31:01.099Z,47.01
2023-05-22T03:33:28.325Z,47.35
2023-05-22T03:35:56.432Z,47.27
2023-05-22T03:38:26.718Z,46.92
2023-05-22T03:40:54.679Z,47.07
2023-05-22T03:43:21.940Z,47.02
2023-05-22T03:45:49.211Z,47.18
2023-05-22T03:48:16.468Z,47.24
2023-05-22T03:50:43.781Z,47.24
2023-05-22T03:53:11.346Z,46.72
2023-05-22T03:55:38.599Z,47.17
2023-05-22T03:58:05.969Z,47.15
2023-05-22T04:00:33.571Z,46.68
2023-05-22T04:03:01.170Z,47.25
2023-05-22T04:05:28.864Z,46.75
2023-05-22T04:07:56.389Z,46.74
2023-05-22T04:10:23.710Z,46.71
2023-05-22T04:12:51.128Z,46.81
2023-05-22T04:15:18.361Z,46.74
2023-05-22T04:17:46.246Z,46.71
2023-05-22T04:20:14.105Z,46.89
2023-05-22T04:22:43.770Z,46.97
2023-05-22T04:25:11.169Z,47.03
2023-05-22T04:27:38.397Z,46.75
2023-05-22T04:30:07.534Z,46.80
2023-05-22T04:32:36.327Z,46.72
2023-05-22T04:35:03.752Z,46.84
2023-05-22T04:37:31.849Z,46.78
2023-05-22T04:40:05.714Z,46.88
2023-05-22T04:42:34.585Z,47.11
2023-05-22T04:45:01.762Z,47.02
2023-05-22T04:47:29.087Z,46.81
2023-05-22T04:49:57.097Z,47.01
2023-05-22T04:52:24.387Z,46.75
2023-05-22T04:54:52.325Z,46.71
2023-05-22T04:57:21.282Z,46.79
2023-05-22T04:59:48.602Z,47.06
2023-05-22T05:02:15.821Z,47.38
2023-05-22T05:04:43.563Z,47.30
2023-05-22T05:07:10.939Z,47.40
2023-05-22T05:09:38.198Z,47.87
2023-05-22T05:12:05.882Z,49.52
2023-05-22T05:14:33.111Z,49.35
2023-05-22T05:17:00.541Z,49.61
2023-05-22T05:19:27.974Z,49.44
2023-05-22T05:22:01.726Z,49.91
2023-05-22T05:24:29.193Z,50.10
2023-05-22T05:26:56.451Z,50.33
2023-05-22T05:29:23.717Z,50.06
2023-05-22T05:31:51.016Z,51.10
2023-05-22T05:34:18.252Z,51.32
2023-05-22T05:36:46.097Z,50.48
2023-05-22T05:39:13.616Z,50.43
2023-05-22T05:41:41.302Z,49.86
2023-05-22T05:44:08.539Z,49.80
2023-05-22T05:46:35.922Z,49.20
2023-05-22T05:49:09.939Z,49.06
2023-05-22T05:51:38.210Z,48.77
2023-05-22T05:54:05.772Z,48.39
2023-05-22T05:56:34.489Z,49.48
2023-05-22T05:59:01.832Z,49.82
2023-05-22T06:01:32.957Z,50.02
2023-05-22T06:04:03.259Z,50.08
2023-05-22T06:06:36.066Z,49.82
2023-05-22T06:09:05.880Z,49.66
2023-05-22T06:11:33.745Z,49.76
2023-05-22T06:14:05.569Z,49.63
2023-05-22T06:16:32.841Z,49.47
2023-05-22T06:19:00.506Z,49.82
2023-05-22T06:21:27.843Z,49.72
2023-05-22T06:23:55.109Z,49.31
2023-05-22T06:26:23.537Z,49.57
2023-05-22T06:28:51.876Z,49.29
2023-05-22T06:31:19.533Z,49.50
2023-05-22T06:33:47.170Z,49.95
2023-05-22T06:36:14.534Z,49.77
2023-05-22T06:38:41.824Z,49.51
2023-05-22T06:41:09.108Z,49.53
2023-05-22T06:43:36.413Z,49.53
2023-05-22T06:46:03.712Z,49.41
2023-05-22T06:48:35.104Z,49.08
2023-05-22T06:51:02.661Z,48.90
2023-05-22T06:53:29.968Z,49.01
2023-05-22T06:55:57.407Z,49.01
2023-05-22T06:58:24.653Z,49.07
2023-05-22T07:00:52.093Z,48.66
2023-05-22T07:03:19.421Z,48.78
2023-05-22T07:05:46.681Z,48.76
2023-05-22T07:08:14.047Z,49.01
2023-05-22T07:10:41.515Z,48.49
2023-05-22T07:13:08.881Z,48.32
2023-05-22T07:15:38.397Z,48.44
2023-05-22T07:18:05.907Z,48.16
2023-05-22T07:20:33.184Z,48.26
2023-05-22T07:23:00.692Z,48.19
2023-05-22T07:25:28.315Z,48.24
2023-05-22T07:27:55.931Z,48.53
2023-05-22T07:30:23.182Z,48.25
2023-05-22T07:32:50.666Z,48.32
2023-05-22T07:35:17.946Z,48.24
2023-05-22T07:37:45.441Z,48.36
2023-05-22T07:40:12.888Z,48.06
2023-05-22T07:42:40.287Z,48.02
2023-05-22T07:45:08.033Z,48.06
2023-05-22T07:47:35.363Z,48.31
2023-05-22T07:50:05.823Z,47.96
2023-05-22T07:52:33.114Z,48.31
2023-05-22T07:55:01.468Z,47.94
2023-05-22T07:57:29.797Z,48.23
2023-05-22T07:59:57.446Z,47.97
2023-05-22T08:02:24.798Z,47.86
2023-05-22T08:04:52.153Z,48.11
2023-05-22T08:07:19.516Z,48.00
2023-05-22T08:09:46.839Z,48.07
2023-05-22T08:12:14.154Z,48.03
2023-05-22T08:14:41.499Z,48.00
2023-05-22T08:17:08.891Z,48.13
2023-05-22T08:19:36.688Z,47.95
2023-05-22T08:22:03.959Z,48.05
2023-05-22T08:24:31.395Z,48.34
2023-05-22T08:26:58.833Z,48.37
2023-05-22T08:29:26.129Z,48.32
2023-05-22T08:31:56.729Z,47.77
2023-05-22T08:34:28.600Z,48.09
2023-05-22T08:36:55.852Z,48.41
2023-05-22T08:39:23.074Z,48.32
2023-05-22T08:41:50.905Z,48.58
2023-05-22T08:44:19.804Z,49.02
2023-05-22T08:46:47.385Z,48.51
2023-05-22T08:49:14.791Z,48.90
2023-05-22T08:51:42.557Z,49.13
2023-05-22T08:54:10.294Z,49.32
2023-05-22T08:56:45.721Z,49.51
2023-05-22T08:59:21.408Z,49.77
2023-05-22T09:01:49.229Z,50.21
2023-05-22T09:04:16.779Z,49.85
2023-05-22T09:06:46.807Z,49.29
2023-05-22T09:09:14.198Z,49.52
2023-05-22T09:11:41.547Z,49.55
2023-05-22T09:14:12.397Z,49.19
2023-05-22T09:16:50.181Z,48.48
2023-05-22T09:19:17.568Z,47.69
2023-05-22T09:21:44.872Z,47.53
2023-05-22T09:24:12.496Z,47.30
2023-05-22T09:26:40.607Z,47.90
2023-05-22T09:29:08.183Z,47.87
2023-05-22T09:31:44.981Z,48.69
2023-05-22T09:34:17.569Z,48.57
2023-05-22T09:36:44.977Z,48.74
2023-05-22T09:39:12.695Z,48.80
2023-05-22T09:41:40.805Z,48.44
2023-05-22T09:44:17.816Z,48.79
2023-05-22T09:46:46.443Z,48.60
2023-05-22T09:49:16.446Z,49.10
2023-05-22T09:51:48.100Z,49.48
2023-05-22T09:54:17.350Z,49.80
2023-05-22T09:56:44.561Z,50.04
2023-05-22T09:59:13.946Z,50.78
2023-05-22T10:01:42.744Z,51.10
2023-05-22T10:04:16.244Z,51.22
2023-05-22T10:06:44.973Z,51.82
2023-05-22T10:09:19.212Z,51.69
2023-05-22T10:11:47.601Z,53.89
2023-05-22T10:14:15.861Z,54.04
2023-05-22T10:16:45.235Z,54.25
2023-05-22T10:19:13.275Z,55.23
2023-05-22T10:21:42.348Z,55.92
2023-05-22T10:24:10.299Z,56.77
2023-05-22T10:26:38.716Z,54.07
2023-05-22T10:29:12.309Z,53.06
2023-05-22T10:32:02.118Z,53.91
2023-05-22T10:34:35.040Z,52.94
2023-05-22T10:37:36.177Z,52.25
2023-05-22T10:40:08.242Z,51.89
2023-05-22T10:42:37.119Z,51.56
2023-05-22T10:45:06.809Z,51.44
2023-05-22T10:47:34.639Z,51.62
2023-05-22T10:50:07.570Z,51.64
2023-05-22T10:52:35.698Z,51.39
2023-05-22T10:55:12.744Z,51.26
2023-05-22T10:57:42.060Z,50.82
2023-05-22T11:00:15.315Z,50.55
2023-05-22T11:02:44.312Z,50.58
2023-05-22T11:05:25.685Z,50.55
2023-05-22T11:07:53.010Z,50.82
2023-05-22T11:10:27.821Z,50.51
2023-05-22T11:13:12.349Z,50.55
2023-05-22T11:15:48.112Z,50.47
2023-05-22T11:18:16.431Z,49.90
2023-05-22T11:20:44.427Z,49.65
2023-05-22T11:23:11.933Z,49.58
2023-05-22T11:25:41.393Z,49.48
2023-05-22T11:28:10.688Z,50.41
2023-05-22T11:30:38.573Z,49.98
2023-05-22T11:33:06.729Z,49.43
2023-05-22T11:35:34.285Z,49.70
2023-05-22T11:38:04.839Z,49.58
2023-05-22T11:40:32.121Z,49.23
2023-05-22T11:43:03.974Z,49.45
2023-05-22T11:45:31.462Z,50.48
2023-05-22T11:47:58.810Z,49.93
2023-05-22T11:50:43.688Z,49.97
2023-05-22T11:53:11.349Z,49.37
2023-05-22T11:55:38.630Z,48.81
2023-05-22T11:58:05.993Z,49.19
2023-05-22T12:00:33.630Z,49.17
2023-05-22T12:03:02.255Z,48.96
2023-05-22T12:05:32.447Z,49.28
2023-05-22T12:08:00.038Z,49.58
2023-05-22T12:10:27.275Z,49.26
2023-05-22T12:12:55.323Z,49.62
2023-05-22T12:15:22.664Z,49.24
2023-05-22T12:17:49.965Z,49.50
2023-05-22T12:20:17.222Z,49.17
2023-05-22T12:22:44.711Z,49.05
2023-05-22T12:25:17.126Z,49.25
2023-05-22T12:27:45.646Z,49.15
2023-05-22T12:30:14.357Z,48.85
2023-05-22T12:32:42.172Z,49.12
2023-05-22T12:35:16.941Z,49.26
2023-05-22T12:37:51.585Z,49.39
2023-05-22T12:40:19.350Z,49.37
2023-05-22T12:42:47.199Z,49.38
2023-05-22T12:45:14.637Z,49.18
2023-05-22T12:47:42.494Z,49.32
2023-05-22T12:50:10.891Z,49.07
2023-05-22T12:52:38.181Z,49.22
2023-05-22T12:55:05.929Z,49.02
2023-05-22T12:57:36.621Z,49.29
2023-05-22T13:00:05.945Z,49.09
2023-05-22T13:02:33.516Z,49.33
2023-05-22T13:05:01.107Z,48.74
2023-05-22T13:07:28.967Z,49.12
2023-05-22T13:09:56.441Z,48.82
2023-05-22T13:12:27.329Z,48.64
2023-05-22T13:14:54.578Z,49.09
2023-05-22T13:17:21.843Z,48.75
2023-05-22T13:19:49.193Z,48.95
2023-05-22T13:22:16.429Z,48.86
2023-05-22T13:24:43.978Z,49.05
2023-05-22T13:27:11.234Z,48.97
2023-05-22T13:29:38.647Z,48.74
2023-05-22T13:32:06.201Z,48.87
2023-05-22T13:34:33.927Z,48.52
2023-05-22T13:37:01.600Z,48.91
2023-05-22T13:39:31.956Z,48.78
2023-05-22T13:41:59.812Z,48.68
2023-05-22T13:44:27.450Z,48.88
2023-05-22T13:46:55.146Z,48.94
2023-05-22T13:49:22.586Z,48.80
2023-05-22T13:51:49.978Z,48.78
2023-05-22T13:54:17.204Z,49.00
2023-05-22T13:56:44.663Z,48.78
2023-05-22T13:59:12.059Z,48.91
2023-05-22T14:01:39.742Z,49.01
2023-05-22T14:04:07.286Z,48.75
2023-05-22T14:06:34.832Z,48.43
2023-05-22T14:09:02.132Z,48.98
2023-05-22T14:11:30.401Z,48.84
2023-05-22T14:13:57.669Z,48.92
2023-05-22T14:16:24.901Z,48.81
2023-05-22T14:18:52.303Z,48.88
2023-05-22T14:21:20.569Z,48.90
2023-05-22T14:23:48.285Z,48.72
2023-05-22T14:26:15.585Z,48.47
2023-05-22T14:28:43.174Z,48.89
2023-05-22T14:31:10.494Z,48.97
2023-05-22T14:33:37.829Z,49.27
2023-05-22T14:36:05.169Z,49.44
2023-05-22T14:38:33.760Z,49.61
2023-05-22T14:41:01.768Z,50.46
2023-05-22T14:43:29.184Z,50.90
2023-05-22T14:45:58.065Z,51.04
2023-05-22T14:48:26.458Z,50.88
2023-05-22T14:50:54.097Z,50.98
2023-05-22T14:53:21.588Z,50.91
2023-05-22T14:55:48.894Z,50.25
2023-05-22T14:58:16.182Z,50.58
2023-05-22T15:00:43.620Z,50.80
2023-05-22T15:03:11.972Z,50.34
2023-05-22T15:05:39.858Z,49.97
2023-05-22T15:08:09.865Z,50.06
2023-05-22T15:10:37.444Z,49.90
2023-05-22T15:13:04.784Z,49.63
2023-05-22T15:15:32.032Z,49.47
2023-05-22T15:18:02.816Z,49.41
2023-05-22T15:20:30.451Z,49.30
2023-05-22T15:22:59.220Z,49.03
2023-05-22T15:25:26.816Z,49.09
2023-05-22T15:27:54.318Z,49.29
2023-05-22T15:30:25.219Z,49.26
2023-05-22T15:32:52.814Z,49.23
2023-05-22T15:35:20.318Z,49.39
2023-05-22T15:37:47.739Z,49.53
2023-05-22T15:40:18.299Z,49.12
2023-05-22T15:42:45.795Z,49.50
2023-05-22T15:45:13.122Z,49.52
2023-05-22T15:47:40.919Z,49.27
2023-05-22T15:50:08.630Z,49.33
2023-05-22T15:52:36.241Z,49.52
2023-05-22T15:55:03.500Z,49.46
2023-05-22T15:57:31.130Z,49.31
2023-05-22T15:59:58.468Z,49.55
2023-05-22T16:02:26.524Z,49.25
2023-05-22T16:04:53.933Z,49.58
2023-05-22T16:07:21.544Z,49.42
2023-05-22T16:09:50.293Z,49.44
2023-05-22T16:12:18.242Z,49.23
2023-05-22T16:14:45.766Z,49.11
2023-05-22T16:17:13.700Z,49.05
2023-05-22T16:19:41.236Z,49.16
2023-05-22T16:22:08.586Z,49.25
2023-05-22T16:24:36.045Z,48.99
2023-05-22T16:27:03.853Z,49.16
2023-05-22T16:29:32.554Z,49.67
2023-05-22T16:32:00.246Z,49.23
2023-05-22T16:34:27.719Z,49.39
2023-05-22T16:36:55.032Z,49.06
2023-05-22T16:39:22.245Z,49.06
2023-05-22T16:41:51.502Z,49.10
2023-05-22T16:44:20.315Z,49.25
2023-05-22T16:46:49.548Z,48.91
2023-05-22T16:49:16.928Z,49.12
2023-05-22T16:51:44.224Z,48.97
2023-05-22T16:54:11.875Z,49.27
2023-05-22T16:56:39.208Z,49.28
2023-05-22T16:59:06.796Z,49.26
2023-05-22T17:01:34.205Z,49.05
2023-05-22T17:04:01.572Z,48.80
2023-05-22T17:06:29.521Z,49.07
2023-05-22T17:09:00.444Z,49.13
2023-05-22T17:11:27.740Z,48.74
2023-05-22T17:13:54.971Z,49.05
2023-05-22T17:16:22.978Z,48.91
2023-05-22T17:18:51.016Z,48.92
2023-05-22T17:21:21.110Z,48.87
2023-05-22T17:23:48.556Z,49.26
2023-05-22T17:26:16.712Z,49.06
2023-05-22T17:28:44.389Z,49.20
2023-05-22T17:31:12.609Z,49.76
2023-05-22T17:33:40.080Z,49.45
2023-05-22T17:36:07.659Z,49.19
2023-05-22T17:38:35.182Z,49.15
2023-05-22T17:41:02.403Z,49.78
2023-05-22T17:43:35.427Z,49.86
2023-05-22T17:46:03.322Z,49.37
2023-05-22T17:48:30.643Z,49.80
2023-05-22T17:50:59.351Z,49.43
2023-05-22T17:53:26.599Z,49.67
2023-05-22T17:55:53.969Z,49.69
2023-05-22T17:58:21.546Z,49.50
2023-05-22T18:00:49.220Z,49.72
2023-05-22T18:03:21.297Z,49.42
2023-05-22T18:05:51.263Z,49.65
2023-05-22T18:08:19.098Z,49.94
2023-05-22T18:10:46.513Z,50.53
2023-05-22T18:13:13.802Z,50.48
2023-05-22T18:15:41.249Z,50.20
2023-05-22T18:18:10.031Z,49.60
2023-05-22T18:20:38.895Z,49.36
2023-05-22T18:23:06.575Z,49.07
2023-05-22T18:25:33.805Z,48.24
2023-05-22T18:28:01.131Z,47.56
2023-05-22T18:30:28.463Z,46.85
2023-05-22T18:32:55.775Z,46.33
2023-05-22T18:35:23.154Z,46.49
2023-05-22T18:37:50.412Z,46.03
2023-05-22T18:40:17.828Z,45.06
2023-05-22T18:42:45.070Z,44.98
2023-05-22T18:45:12.449Z,44.72
2023-05-22T18:47:42.491Z,44.67
2023-05-22T18:50:10.057Z,44.24
2023-05-22T18:52:40.158Z,44.13
2023-05-22T18:55:10.720Z,43.79
2023-05-22T18:57:37.939Z,44.11
2023-05-22T19:00:07.058Z,43.95
2023-05-22T19:02:34.363Z,43.32
2023-05-22T19:05:01.868Z,43.49
2023-05-22T19:07:30.374Z,42.72
2023-05-22T19:09:57.606Z,42.67
2023-05-22T19:12:25.853Z,42.32
2023-05-22T19:14:55.120Z,42.57
2023-05-22T19:17:23.052Z,43.24
2023-05-22T19:19:50.366Z,43.78
2023-05-22T19:22:18.248Z,44.67
2023-05-22T19:24:48.938Z,45.28
2023-05-22T19:27:16.423Z,45.27
2023-05-22T19:29:43.954Z,45.13
2023-05-22T19:32:11.355Z,45.75
2023-05-22T19:34:38.784Z,45.83
2023-05-22T19:37:07.584Z,46.07
2023-05-22T19:39:34.931Z,46.89
2023-05-22T19:42:02.476Z,47.03
2023-05-22T19:44:31.242Z,47.01
2023-05-22T19:46:58.539Z,47.64
2023-05-22T19:49:26.885Z,47.70
2023-05-22T19:51:56.078Z,45.42
2023-05-22T19:54:23.759Z,45.28
2023-05-22T19:56:58.621Z,44.71
2023-05-22T19:59:27.309Z,44.78
2023-05-22T20:01:55.205Z,43.97
2023-05-22T20:04:23.117Z,43.36
2023-05-22T20:06:50.851Z,43.44
2023-05-22T20:09:18.193Z,43.19
2023-05-22T20:11:45.652Z,42.12
2023-05-22T20:14:13.504Z,42.45
2023-05-22T20:16:44.578Z,42.35
2023-05-22T20:19:14.318Z,42.12
2023-05-22T20:21:41.825Z,42.13
2023-05-22T20:24:27.142Z,42.01
2023-05-22T20:26:54.506Z,42.32
2023-05-22T20:29:21.986Z,41.11
2023-05-22T20:31:51.290Z,41.79
2023-05-22T20:34:20.502Z,41.22
2023-05-22T20:36:48.417Z,41.24
2023-05-22T20:39:16.285Z,41.07
2023-05-22T20:41:43.860Z,40.95
2023-05-22T20:44:11.201Z,41.12
2023-05-22T20:46:39.171Z,40.80
2023-05-22T20:49:06.583Z,40.01
2023-05-22T20:51:36.837Z,40.43
2023-05-22T20:54:04.491Z,40.42
2023-05-22T20:56:32.134Z,40.11
2023-05-22T20:58:59.499Z,39.91
2023-05-22T21:01:26.989Z,40.28
2023-05-22T21:03:56.493Z,40.26
2023-05-22T21:06:24.007Z,40.00
2023-05-22T21:08:53.982Z,40.34
2023-05-22T21:11:21.545Z,40.64
2023-05-22T21:13:48.854Z,40.40
2023-05-22T21:16:16.348Z,40.55
2023-05-22T21:18:43.750Z,40.46
2023-05-22T21:21:11.444Z,40.25
2023-05-22T21:23:39.264Z,40.26
2023-05-22T21:26:06.679Z,40.61
2023-05-22T21:28:34.199Z,40.56
2023-05-22T21:31:01.491Z,40.83
2023-05-22T21:33:29.009Z,40.68
2023-05-22T21:35:56.231Z,40.82
2023-05-22T21:38:25.379Z,40.32
2023-05-22T21:40:52.698Z,40.73
2023-05-22T21:43:19.927Z,40.34
2023-05-22T21:45:50.400Z,40.75
2023-05-22T21:48:17.692Z,40.28
2023-05-22T21:50:45.233Z,40.03
2023-05-22T21:53:12.638Z,40.45
2023-05-22T21:55:40.562Z,40.83
2023-05-22T21:58:07.818Z,40.56
2023-05-22T22:00:35.641Z,40.62
2023-05-22T22:05:30.790Z,40.73
2023-05-22T22:07:58.027Z,40.63
2023-05-22T22:10:25.338Z,40.88
2023-05-22T22:12:52.744Z,40.97
2023-05-22T22:15:21.746Z,40.67
2023-05-22T22:17:50.177Z,40.67
2023-05-22T22:20:20.407Z,41.05
2023-05-22T22:22:52.277Z,40.94
2023-05-22T22:25:19.754Z,40.91
2023-05-22T22:27:49.684Z,42.11
2023-05-22T22:30:17.375Z,40.82
2023-05-22T22:32:47.489Z,41.40
2023-05-22T22:35:16.430Z,41.74
2023-05-22T22:37:51.882Z,41.95
2023-05-22T22:40:19.570Z,42.00
2023-05-22T22:42:47.025Z,41.93
2023-05-22T22:45:15.045Z,42.28
2023-05-22T22:47:42.567Z,41.99
2023-05-22T22:50:12.749Z,42.61
2023-05-22T22:52:41.620Z,42.50
2023-05-22T22:55:11.090Z,42.57
2023-05-22T22:57:38.513Z,42.61
2023-05-22T23:00:06.857Z,42.71
2023-05-22T23:02:34.237Z,42.72
2023-05-22T23:05:02.492Z,42.96
2023-05-22T23:07:39.007Z,43.07
2023-05-22T23:10:07.622Z,43.20
2023-05-22T23:12:36.220Z,43.32
2023-05-22T23:15:03.742Z,43.06
2023-05-22T23:17:31.095Z,43.43
2023-05-22T23:19:58.492Z,43.90
2023-05-22T23:22:25.766Z,43.63
2023-05-22T23:24:53.070Z,43.91
2023-05-22T23:27:20.466Z,43.65
2023-05-22T23:29:47.695Z,43.53
2023-05-22T23:32:15.085Z,43.99
2023-05-22T23:34:42.513Z,43.64
2023-05-22T23:37:09.987Z,44.09
2023-05-22T23:39:37.291Z,44.08
2023-05-22T23:42:04.667Z,43.74
2023-05-22T23:44:32.339Z,44.11
2023-05-22T23:46:59.934Z,44.13
2023-05-22T23:49:27.279Z,43.78
2023-05-22T23:51:54.508Z,43.95
2023-05-22T23:54:21.862Z,44.10
2023-05-22T23:56:49.121Z,43.96
2023-05-22T23:59:16.408Z,44.26
